Time;durP1;ratioP1;P1;durP2;ratioP2;P2;SDS_P1;SDS_P2;PMS_P1;PMS_P2;Temp;Humidity;BMP_temperature;BMP_pressure;BME280_temperature;BME280_humidity;BME280_pressure;Samples;Min_cycle;Max_cycle;Signal;HPM_P1;HPM_P2
2022/11/24 00:01:11;;;;;;;1.87;1.30;;;8.10;99.90;;;;;;6152688;23;20463;-73
2022/11/24 00:03:39;;;;;;;0.53;0.27;;;8.10;99.90;;;;;;6151951;23;20508;-75
2022/11/24 00:06:09;;;;;;;0.60;0.40;;;8.10;99.90;;;;;;6152551;23;20741;-74
2022/11/24 00:08:38;;;;;;;1.10;0.50;;;8.20;99.90;;;;;;6153218;23;20404;-73
2022/11/24 00:11:10;;;;;;;1.70;0.47;;;8.10;99.90;;;;;;6153196;23;20504;-73
2022/11/24 00:13:38;;;;;;;0.50;0.10;;;8.20;99.90;;;;;;6153767;23;20435;-73
2022/11/24 00:16:09;;;;;;;0.87;0.47;;;8.20;99.90;;;;;;6154699;23;20405;-73
2022/11/24 00:18:38;;;;;;;0.50;0.20;;;8.20;99.90;;;;;;6154823;23;20392;-74
2022/11/24 00:21:06;;;;;;;0.97;0.50;;;8.20;99.90;;;;;;6154548;23;20925;-72
2022/11/24 00:23:34;;;;;;;0.60;0.40;;;8.20;99.90;;;;;;6154425;23;20710;-72
2022/11/24 00:26:07;;;;;;;0.50;0.20;;;8.20;99.90;;;;;;6154755;23;20456;-72
2022/11/24 00:28:37;;;;;;;3.40;0.67;;;8.20;99.90;;;;;;6155331;23;20408;-70
2022/11/24 00:31:13;;;;;;;0.60;0.40;;;8.20;99.90;;;;;;6155094;23;20440;-71
2022/11/24 00:33:44;;;;;;;0.60;0.40;;;8.20;99.90;;;;;;6154321;23;21009;-71
2022/11/24 00:36:12;;;;;;;4.63;0.73;;;8.20;99.90;;;;;;6154648;23;20409;-72
2022/11/24 00:38:40;;;;;;;0.70;0.40;;;8.20;99.90;;;;;;6154768;23;20401;-72
2022/11/24 00:41:08;;;;;;;0.50;0.20;;;8.20;99.90;;;;;;6154720;23;20397;-72
2022/11/24 00:43:37;;;;;;;0.50;0.20;;;8.20;99.90;;;;;;6154202;23;20420;-73
2022/11/24 00:46:05;;;;;;;3.30;1.80;;;8.20;99.90;;;;;;6154761;23;20401;-72
2022/11/24 00:48:33;;;;;;;0.50;0.10;;;8.20;99.90;;;;;;6154187;23;20962;-73
2022/11/24 00:51:03;;;;;;;0.50;0.10;;;8.20;99.90;;;;;;6153983;23;20810;-72
2022/11/24 00:53:31;;;;;;;0.50;0.20;;;8.20;99.90;;;;;;6153652;23;20429;-73
2022/11/24 00:55:59;;;;;;;0.50;0.10;;;8.30;99.90;;;;;;6154570;23;20409;-73
2022/11/24 00:58:27;;;;;;;0.50;0.10;;;8.30;99.90;;;;;;6154668;23;20460;-72
2022/11/24 05:01:41;;;;;;;0.60;0.60;;;;;;;;;;6092671;23;20481;-75
2022/11/24 05:04:11;;;;;;;0.50;0.10;;;8.50;99.90;;;;;;6153686;23;20460;-73
2022/11/24 05:06:40;;;;;;;2.03;0.93;;;8.50;99.90;;;;;;6152387;23;20909;-73
2022/11/24 05:09:08;;;;;;;1.70;1.20;;;8.50;99.90;;;;;;6153653;23;20405;-74
2022/11/24 05:11:36;;;;;;;0.70;0.30;;;8.50;99.90;;;;;;6153661;23;20445;-74
2022/11/24 05:16:38;;;;;;;0.50;0.20;;;8.60;99.90;;;;;;6037666;23;20479;-75
2022/11/24 05:19:07;;;;;;;0.60;0.40;;;8.60;99.90;;;;;;6038290;23;20409;-75
2022/11/24 05:21:35;;;;;;;0.50;0.10;;;8.70;99.90;;;;;;6038356;23;20768;-75
2022/11/24 05:24:03;;;;;;;0.50;0.20;;;8.80;99.90;;;;;;6037918;23;20416;-75
2022/11/24 05:26:30;;;;;;;0.50;0.10;;;8.80;99.90;;;;;;6038318;23;20416;-75
2022/11/24 05:28:58;;;;;;;0.50;0.20;;;8.90;99.90;;;;;;6038766;23;20408;-74
2022/11/24 05:31:26;;;;;;;0.50;0.10;;;8.90;99.90;;;;;;6037762;23;20918;-75
2022/11/24 05:33:54;;;;;;;0.50;0.10;;;8.90;99.90;;;;;;6038338;23;20492;-75
2022/11/24 05:39:05;;;;;;;0.50;0.10;;;9.00;99.90;;;;;;6015966;23;20780;-75
2022/11/24 05:41:33;;;;;;;5.90;2.43;;;9.10;99.90;;;;;;6040862;23;20432;-75
2022/11/24 05:44:01;;;;;;;0.50;0.20;;;9.10;99.90;;;;;;6040941;23;20419;-75
2022/11/24 05:46:29;;;;;;;0.50;0.10;;;9.10;99.90;;;;;;6040339;23;20440;-74
2022/11/24 05:48:57;;;;;;;0.50;0.10;;;9.10;99.90;;;;;;6040079;23;20900;-74
2022/11/24 05:51:26;;;;;;;0.70;0.53;;;9.10;99.90;;;;;;6043713;23;20412;-75
2022/11/24 05:53:54;;;;;;;0.50;0.10;;;9.10;99.90;;;;;;6039836;23;20404;-74
2022/11/24 05:56:22;;;;;;;0.50;0.20;;;9.10;99.90;;;;;;6039988;23;20428;-74
2022/11/24 05:58:50;;;;;;;0.50;0.10;;;9.20;99.90;;;;;;6039578;23;20472;-75
2022/11/24 06:01:17;;;;;;;0.50;0.10;;;9.20;99.90;;;;;;6040779;23;20408;-73
2022/11/24 06:03:45;;;;;;;0.90;0.67;;;9.20;99.90;;;;;;6040844;23;20420;-74
2022/11/24 06:06:13;;;;;;;0.50;0.10;;;9.30;99.90;;;;;;6039399;23;21000;-74
2022/11/24 06:08:42;;;;;;;0.60;0.57;;;9.30;99.90;;;;;;6038456;23;20471;-75
2022/11/24 06:11:19;;;;;;;0.50;0.10;;;9.30;99.90;;;;;;6039875;23;20401;-74
2022/11/24 06:13:48;;;;;;;0.50;0.10;;;9.40;99.90;;;;;;6039276;23;20496;-75
2022/11/24 06:16:16;;;;;;;0.50;0.10;;;9.40;99.90;;;;;;6063952;23;20436;-75
2022/11/24 06:18:44;;;;;;;0.50;0.23;;;;;;;;;;6068488;23;20503;-75
2022/11/24 06:21:12;;;;;;;0.50;0.10;;;9.40;99.90;;;;;;6067937;23;20419;-75
2022/11/24 06:23:42;;;;;;;0.50;0.10;;;9.40;99.90;;;;;;6068106;23;20526;-75
2022/11/24 06:26:09;;;;;;;0.70;0.57;;;9.40;99.90;;;;;;6069100;23;20431;-76
2022/11/24 06:28:37;;;;;;;0.50;0.10;;;9.30;99.90;;;;;;6068670;23;20407;-75
2022/11/24 06:31:06;;;;;;;0.50;0.10;;;9.40;99.90;;;;;;6068803;23;20446;-75
2022/11/24 06:33:35;;;;;;;0.50;0.10;;;9.40;99.90;;;;;;6068846;23;20444;-74
2022/11/24 06:36:05;;;;;;;1.00;0.50;;;9.40;99.90;;;;;;6068524;23;20430;-74
2022/11/24 06:38:35;;;;;;;1.57;1.47;;;9.40;99.90;;;;;;6068954;23;20503;-76
2022/11/24 06:41:06;;;;;;;0.50;0.10;;;9.40;99.90;;;;;;6068450;23;20459;-76
2022/11/24 06:43:35;;;;;;;0.50;0.10;;;9.40;99.90;;;;;;6067022;23;20404;-76
2022/11/24 06:46:03;;;;;;;0.50;0.10;;;9.40;99.90;;;;;;6067504;23;20443;-75
2022/11/24 06:48:32;;;;;;;1.43;0.87;;;9.40;99.90;;;;;;6067116;23;20411;-75
2022/11/24 06:51:00;;;;;;;0.50;0.10;;;9.50;99.90;;;;;;6064746;23;20904;-76
2022/11/24 06:53:30;;;;;;;0.50;0.10;;;9.50;99.90;;;;;;6066025;23;20574;-75
2022/11/24 06:55:59;;;;;;;0.50;0.20;;;9.50;99.90;;;;;;6067312;23;20948;-75
2022/11/24 06:58:29;;;;;;;0.50;0.10;;;9.50;99.90;;;;;;6070490;23;20463;-75
2022/11/24 07:01:26;;;;;;;0.70;0.50;;;9.50;99.90;;;;;;6068873;23;20408;-76
2022/11/24 07:03:57;;;;;;;0.50;0.10;;;9.40;99.90;;;;;;6069226;23;20381;-76
2022/11/24 07:09:54;;;;;;;0.97;0.97;;;;;;;;;;6153175;23;20768;-76
2022/11/24 07:12:24;;;;;;;0.70;0.70;;;;;;;;;;6156088;23;20940;-75
2022/11/24 07:14:55;;;;;;;0.50;0.10;;;9.50;99.90;;;;;;6156981;23;20456;-76
2022/11/24 07:17:23;;;;;;;0.50;0.10;;;9.50;99.90;;;;;;6156334;23;20456;-75
2022/11/24 07:19:50;;;;;;;0.50;0.10;;;9.50;99.90;;;;;;6155546;23;20417;-75
2022/11/24 07:22:18;;;;;;;0.50;0.10;;;9.50;99.90;;;;;;6155611;23;20413;-75
2022/11/24 07:24:46;;;;;;;0.50;0.10;;;9.50;99.90;;;;;;6155310;23;20429;-76
2022/11/24 07:27:14;;;;;;;0.50;0.10;;;9.50;99.90;;;;;;6155975;23;20901;-76
2022/11/24 07:29:42;;;;;;;0.50;0.30;;;;;;;;;;6156087;23;20405;-75
2022/11/24 07:32:14;;;;;;;0.50;0.27;;;9.50;99.90;;;;;;6155555;23;20468;-75
2022/11/24 07:34:42;;;;;;;0.50;0.10;;;9.50;99.90;;;;;;6156156;23;20497;-75
2022/11/24 07:37:13;;;;;;;0.50;0.10;;;9.50;99.90;;;;;;6155853;23;20405;-74
2022/11/24 07:39:41;;;;;;;0.50;0.10;;;9.50;99.90;;;;;;6155983;23;20417;-76
2022/11/24 07:42:10;;;;;;;0.50;0.10;;;9.50;99.90;;;;;;6155482;23;20449;-75
2022/11/24 07:44:39;;;;;;;0.50;0.10;;;9.60;99.90;;;;;;6157301;23;20421;-77
2022/11/24 07:47:07;;;;;;;9.27;1.80;;;9.60;99.90;;;;;;6156578;23;20397;-75
2022/11/24 07:49:44;;;;;;;0.50;0.10;;;;;;;;;;6157547;23;20401;-76
2022/11/24 07:52:33;;;;;;;0.50;0.10;;;;;;;;;;6157672;23;20495;-75
2022/11/24 07:55:01;;;;;;;0.50;0.10;;;;;;;;;;6156799;23;20417;-76
2022/11/24 07:57:37;;;;;;;0.50;0.10;;;;;;;;;;6156385;23;20901;-76
2022/11/24 08:00:36;;;;;;;0.50;0.10;;;;;;;;;;6155680;23;20807;-77
2022/11/24 08:03:27;;;;;;;0.50;0.10;;;;;;;;;;6158579;23;20413;-77
2022/11/24 08:06:00;;;;;;;0.50;0.30;;;9.60;99.90;;;;;;6158645;23;20444;-74
2022/11/24 08:08:49;;;;;;;0.50;0.10;;;9.50;99.90;;;;;;6157910;23;20460;-73
2022/11/24 08:11:17;;;;;;;0.73;0.30;;;9.60;99.90;;;;;;6157499;23;20420;-74
2022/11/24 08:13:45;;;;;;;0.57;0.20;;;9.50;99.90;;;;;;6156869;23;20491;-75
2022/11/24 08:16:15;;;;;;;0.60;0.23;;;9.50;99.90;;;;;;6157066;23;20949;-75
2022/11/24 08:18:43;;;;;;;0.50;0.10;;;9.50;99.90;;;;;;6157004;23;20405;-74
2022/11/24 08:21:13;;;;;;;0.50;0.10;;;9.50;99.90;;;;;;6156009;23;20386;-74
2022/11/24 08:23:41;;;;;;;0.50;0.10;;;9.50;99.90;;;;;;6154071;23;20402;-74
2022/11/24 08:26:14;;;;;;;0.60;0.20;;;9.50;99.90;;;;;;6155353;23;20490;-74
2022/11/24 08:28:43;;;;;;;0.50;0.10;;;9.50;99.90;;;;;;6155436;23;20392;-75
2022/11/24 08:31:12;;;;;;;6.33;0.73;;;9.50;99.90;;;;;;6154434;23;20401;-74
2022/11/24 08:33:41;;;;;;;1.13;0.40;;;9.50;99.90;;;;;;6154645;23;20436;-75
2022/11/24 08:36:12;;;;;;;3.03;1.17;;;9.50;99.90;;;;;;6154726;23;20952;-75
2022/11/24 08:38:40;;;;;;;0.63;0.20;;;9.50;99.90;;;;;;6155231;23;20405;-75
2022/11/24 08:41:10;;;;;;;8.57;1.27;;;9.50;99.90;;;;;;6154588;23;20401;-74
2022/11/24 08:43:38;;;;;;;2.30;0.53;;;9.50;99.90;;;;;;6154135;23;20401;-74
2022/11/24 08:46:08;;;;;;;0.93;0.90;;;9.50;99.90;;;;;;6154438;23;20821;-74
2022/11/24 08:48:37;;;;;;;0.50;0.10;;;9.40;99.90;;;;;;6154530;23;20771;-74
2022/11/24 08:51:07;;;;;;;0.80;0.30;;;9.40;99.90;;;;;;6155000;23;20404;-75
2022/11/24 08:53:37;;;;;;;0.50;0.17;;;9.50;99.90;;;;;;6154822;23;20539;-76
2022/11/24 08:56:05;;;;;;;2.30;0.53;;;9.50;99.90;;;;;;6154282;23;20926;-75
2022/11/24 08:58:34;;;;;;;0.50;0.30;;;9.50;99.90;;;;;;6154750;23;20905;-74
2022/11/24 09:01:06;;;;;;;0.50;0.30;;;9.50;99.90;;;;;;6152675;23;20428;-74
2022/11/24 09:03:36;;;;;;;1.57;0.30;;;9.50;99.90;;;;;;6153796;23;20460;-74
2022/11/24 09:06:04;;;;;;;0.50;0.20;;;9.50;99.90;;;;;;6152522;23;20433;-74
2022/11/24 09:08:32;;;;;;;1.10;0.30;;;;;;;;;;6154494;23;20902;-74
2022/11/24 09:11:03;;;;;;;1.60;1.50;;;9.50;99.90;;;;;;6154356;23;20476;-74
2022/11/24 09:13:31;;;;;;;2.40;1.40;;;9.50;99.90;;;;;;6152800;23;20447;-75
2022/11/24 09:16:03;;;;;;;0.50;0.20;;;9.50;99.90;;;;;;6153863;23;20436;-73
2022/11/24 09:18:31;;;;;;;0.50;0.20;;;;;;;;;;6154860;23;20420;-73
2022/11/24 09:21:07;;;;;;;1.33;1.07;;;9.60;99.90;;;;;;6154808;23;20405;-74
2022/11/24 09:23:35;;;;;;;0.80;0.50;;;9.60;99.90;;;;;;6154311;23;20401;-75
2022/11/24 09:26:06;;;;;;;0.50;0.10;;;9.70;99.90;;;;;;6154512;23;20496;-74
2022/11/24 09:28:34;;;;;;;8.40;0.87;;;9.70;99.90;;;;;;6154581;23;20408;-75
2022/11/24 09:31:02;;;;;;;1.17;1.07;;;9.70;99.90;;;;;;6154788;23;20905;-74
2022/11/24 09:33:30;;;;;;;0.50;0.10;;;9.70;99.90;;;;;;6154127;23;20499;-74
2022/11/24 09:35:58;;;;;;;0.60;0.40;;;9.70;99.90;;;;;;6154103;23;20425;-75
2022/11/24 09:38:27;;;;;;;0.60;0.30;;;9.80;99.90;;;;;;6154089;23;20409;-75
2022/11/24 09:40:55;;;;;;;2.10;2.00;;;9.80;99.90;;;;;;6155141;23;20454;-76
2022/11/24 09:43:35;;;;;;;0.60;0.47;;;9.80;99.90;;;;;;6158184;23;20405;-74
2022/11/24 09:46:11;;;;;;;3.13;0.63;;;9.80;99.90;;;;;;6160387;23;20432;-74
2022/11/24 09:48:42;;;;;;;0.50;0.10;;;9.80;99.90;;;;;;6161775;23;20411;-74
2022/11/24 09:51:12;;;;;;;1.13;1.03;;;9.90;99.90;;;;;;6155119;23;20386;-75
2022/11/24 09:53:46;;;;;;;0.50;0.10;;;10.00;99.90;;;;;;6153646;23;20405;-76
2022/11/24 09:56:20;;;;;;;1.20;1.10;;;10.00;99.90;;;;;;6153430;23;20953;-77
2022/11/24 09:58:51;;;;;;;0.53;0.27;;;10.00;99.90;;;;;;6154972;23;20393;-75
2022/11/24 10:01:22;;;;;;;0.50;0.20;;;10.10;99.90;;;;;;6154657;23;20420;-74
2022/11/24 10:03:51;;;;;;;2.93;1.90;;;10.10;99.90;;;;;;6155323;23;20386;-75
2022/11/24 10:06:25;;;;;;;0.60;0.20;;;10.10;99.90;;;;;;6154527;23;20433;-75
2022/11/24 10:09:10;;;;;;;0.50;0.20;;;10.10;99.90;;;;;;6154900;23;20386;-75
2022/11/24 10:11:45;;;;;;;0.67;0.30;;;10.20;99.90;;;;;;6155922;23;20428;-75
2022/11/24 10:14:50;;;;;;;0.50;0.10;;;10.20;99.90;;;;;;6154715;23;20431;-76
2022/11/24 10:17:28;;;;;;;1.00;0.20;;;10.40;99.90;;;;;;6154828;23;20644;-75
2022/11/24 10:20:02;;;;;;;14.83;1.17;;;10.40;99.90;;;;;;6155405;23;20386;-75
2022/11/24 10:22:43;;;;;;;0.50;0.20;;;10.50;99.90;;;;;;6154523;23;20405;-75
2022/11/24 10:25:18;;;;;;;0.50;0.10;;;10.60;99.90;;;;;;6155730;23;20829;-75
2022/11/24 10:27:50;;;;;;;2.87;2.77;;;10.60;99.90;;;;;;6156644;23;20413;-75
2022/11/24 10:30:22;;;;;;;0.50;0.20;;;10.60;99.90;;;;;;6157664;23;20401;-74
2022/11/24 10:32:56;;;;;;;0.53;0.17;;;10.60;99.90;;;;;;6157489;23;20411;-75
2022/11/24 10:35:30;;;;;;;1.17;0.67;;;10.70;99.90;;;;;;6159461;23;20557;-75
2022/11/24 10:38:06;;;;;;;0.57;0.20;;;10.70;99.90;;;;;;6159835;23;20404;-75
2022/11/24 10:40:39;;;;;;;0.50;0.10;;;10.70;99.90;;;;;;6157108;23;20404;-75
2022/11/24 10:43:26;;;;;;;7.80;0.40;;;10.80;99.90;;;;;;6157416;23;20440;-75
2022/11/24 10:46:00;;;;;;;0.97;0.73;;;10.80;99.90;;;;;;6158955;23;20425;-76
2022/11/24 10:48:37;;;;;;;0.50;0.10;;;10.80;99.90;;;;;;6158198;23;20384;-75
2022/11/24 10:51:28;;;;;;;6.03;1.60;;;10.80;99.90;;;;;;6156984;23;20405;-75
2022/11/24 10:54:02;;;;;;;0.50;0.10;;;10.90;99.80;;;;;;6158257;23;20407;-75
2022/11/24 10:56:39;;;;;;;0.60;0.50;;;11.00;93.40;;;;;;6156951;23;20789;-75
2022/11/24 10:59:22;;;;;;;0.50;0.10;;;11.00;76.10;;;;;;6156809;23;20465;-75
2022/11/24 11:01:52;;;;;;;0.50;0.10;;;11.00;83.00;;;;;;6158577;23;20412;-78
2022/11/24 11:04:22;;;;;;;0.77;0.77;;;11.20;65.60;;;;;;6158016;23;20401;-74
2022/11/24 11:06:50;;;;;;;1.50;1.40;;;11.20;43.80;;;;;;6157042;23;20412;-75
2022/11/24 11:09:19;;;;;;;0.50;0.10;;;11.10;43.10;;;;;;6157134;23;20898;-76
2022/11/24 11:11:48;;;;;;;2.20;0.47;;;11.20;40.70;;;;;;6156361;23;20455;-76
2022/11/24 11:16:50;;;;;;;1.80;0.37;;;11.10;12.20;;;;;;6138088;23;20463;-79
2022/11/24 11:19:37;;;;;;;0.60;0.10;;;11.10;16.80;;;;;;6142007;23;20473;-79
2022/11/24 11:22:24;;;;;;;0.60;0.10;;;11.10;21.10;;;;;;6142993;23;20698;-79
2022/11/24 11:25:04;;;;;;;0.60;0.20;;;11.20;16.50;;;;;;6142697;23;20425;-78
2022/11/24 11:27:33;;;;;;;0.50;0.10;;;11.20;21.50;;;;;;6143549;23;20424;-79
2022/11/24 11:30:20;;;;;;;0.50;0.10;;;11.30;18.00;;;;;;6144528;23;20465;-79
2022/11/24 11:33:24;;;;;;;0.60;0.20;;;11.40;6.90;;;;;;6139989;23;20806;-78
2022/11/24 11:36:16;;;;;;;0.60;0.10;;;11.50;3.50;;;;;;6143504;23;20446;-77
2022/11/24 11:38:46;;;;;;;3.03;1.50;;;11.50;1.60;;;;;;6149838;23;20672;-79
2022/11/24 11:41:20;;;;;;;1.10;0.30;;;11.70;1.00;;;;;;6147670;23;20437;-78
2022/11/24 11:43:54;;;;;;;1.30;0.93;;;11.70;1.00;;;;;;6143225;23;20735;-78
2022/11/24 11:46:25;;;;;;;21.37;3.80;;;11.70;1.00;;;;;;6136670;23;20422;-78
2022/11/24 11:48:54;;;;;;;0.60;0.20;;;11.80;1.00;;;;;;6138945;23;20441;-79
2022/11/24 11:51:45;;;;;;;0.70;0.40;;;12.00;1.00;;;;;;6139924;23;20397;-79
2022/11/24 11:54:18;;;;;;;5.17;2.60;;;12.00;1.00;;;;;;6140710;23;20390;-79
2022/11/24 11:56:49;;;;;;;0.50;0.10;;;12.00;1.00;;;;;;6133317;23;20957;-78
2022/11/24 11:59:50;;;;;;;0.60;0.10;;;12.00;1.00;;;;;;6137810;23;20480;-78
2022/11/24 12:02:55;;;;;;;0.60;0.10;;;12.00;1.00;;;;;;6147147;23;20416;-77
2022/11/24 12:05:31;;;;;;;1.03;0.93;;;12.00;1.00;;;;;;6141099;23;20512;-78
2022/11/24 12:08:19;;;;;;;0.50;0.10;;;11.90;1.00;;;;;;6140823;23;20386;-79
2022/11/24 12:10:54;;;;;;;0.60;0.17;;;11.90;1.00;;;;;;6140574;23;20765;-78
2022/11/24 12:13:54;;;;;;;0.60;0.20;;;12.00;1.00;;;;;;6138221;23;20412;-78
2022/11/24 12:16:33;;;;;;;0.60;0.10;;;12.10;1.00;;;;;;6113179;23;20450;-80
2022/11/24 12:19:15;;;;;;;0.60;0.20;;;12.10;1.00;;;;;;6111055;23;20852;-79
2022/11/24 12:21:52;;;;;;;0.70;0.20;;;12.10;1.00;;;;;;6113201;23;20425;-79
2022/11/24 12:24:30;;;;;;;1.13;0.93;;;12.00;1.00;;;;;;6110141;23;20918;-80
2022/11/24 12:27:03;;;;;;;0.60;0.30;;;12.00;1.00;;;;;;6110493;23;20388;-78
2022/11/24 12:29:57;;;;;;;0.60;0.20;;;11.90;1.00;;;;;;6112146;23;20499;-79
2022/11/24 12:32:43;;;;;;;0.60;0.20;;;11.90;1.00;;;;;;6112613;23;20411;-79
2022/11/24 12:35:19;;;;;;;0.50;0.10;;;11.80;1.00;;;;;;6114539;23;20518;-79
2022/11/24 12:37:57;;;;;;;0.50;0.10;;;11.80;1.00;;;;;;6114094;23;20408;-79
2022/11/24 12:40:40;;;;;;;1.37;0.67;;;11.80;1.00;;;;;;6114503;23;20438;-79
2022/11/24 12:43:19;;;;;;;0.60;0.10;;;11.80;1.00;;;;;;6112377;23;20430;-78
2022/11/24 12:45:56;;;;;;;0.83;0.30;;;11.90;1.00;;;;;;6109532;23;20775;-77
2022/11/24 12:48:32;;;;;;;0.57;0.10;;;11.90;1.00;;;;;;6111699;23;20490;-78
2022/11/24 12:51:01;;;;;;;0.60;0.10;;;11.90;1.00;;;;;;6110834;23;20402;-77
2022/11/24 12:53:33;;;;;;;0.60;0.10;;;11.90;1.00;;;;;;6107997;23;20423;-78
2022/11/24 12:56:08;;;;;;;0.60;0.30;;;11.90;1.00;;;;;;6109314;23;20526;-79
2022/11/24 12:58:44;;;;;;;0.70;0.53;;;11.80;1.00;;;;;;6110680;23;20450;-80
2022/11/24 13:01:17;;;;;;;0.60;0.20;;;11.80;1.00;;;;;;6112716;23;20476;-80
2022/11/24 13:03:58;;;;;;;0.60;0.10;;;11.80;1.00;;;;;;6112600;23;20406;-79
2022/11/24 13:06:34;;;;;;;0.60;0.20;;;11.80;1.00;;;;;;6116525;23;20441;-78
2022/11/24 13:09:09;;;;;;;1.70;1.60;;;11.90;1.00;;;;;;6116056;23;20393;-80
2022/11/24 13:11:43;;;;;;;0.60;0.20;;;11.80;1.00;;;;;;6120054;23;20410;-78
2022/11/24 13:14:18;;;;;;;0.60;0.10;;;11.80;1.00;;;;;;6121360;23;20391;-77
2022/11/24 13:16:54;;;;;;;0.53;0.10;;;11.80;1.00;;;;;;6122213;23;20489;-79
2022/11/24 13:19:42;;;;;;;0.57;0.10;;;11.70;1.00;;;;;;6116305;23;20410;-79
2022/11/24 13:22:16;;;;;;;0.60;0.20;;;11.70;1.00;;;;;;6114878;23;20426;-79
2022/11/24 13:24:44;;;;;;;0.60;0.30;;;11.60;1.00;;;;;;6114125;23;20432;-79
2022/11/24 13:27:40;;;;;;;1.00;0.73;;;11.70;1.00;;;;;;6110824;23;20490;-79
2022/11/24 13:30:51;;;;;;;0.60;0.10;;;11.60;1.00;;;;;;6115182;23;20394;-79
2022/11/24 13:33:33;;;;;;;1.13;1.03;;;11.70;1.00;;;;;;6112727;23;20411;-79
2022/11/24 13:36:32;;;;;;;0.60;0.20;;;11.70;1.00;;;;;;6118954;23;20446;-80
2022/11/24 13:39:01;;;;;;;0.60;0.10;;;11.80;1.00;;;;;;6117558;23;20707;-79
2022/11/24 13:42:07;;;;;;;0.60;0.20;;;11.80;1.00;;;;;;6117836;23;20433;-79
2022/11/24 13:44:56;;;;;;;0.60;0.10;;;11.80;1.00;;;;;;6118615;23;20502;-80
2022/11/24 13:47:33;;;;;;;1.37;0.80;;;11.80;1.00;;;;;;6121059;23;20363;-80
2022/11/24 13:50:02;;;;;;;0.60;0.10;;;11.90;1.00;;;;;;6121000;23;20437;-78
2022/11/24 13:52:46;;;;;;;0.60;0.10;;;11.80;1.00;;;;;;6118695;23;20482;-79
2022/11/24 13:55:28;;;;;;;0.60;0.10;;;11.90;1.00;;;;;;6120003;23;20494;-80
2022/11/24 13:58:00;;;;;;;0.53;0.10;;;11.90;1.00;;;;;;6121420;23;20391;-79
2022/11/24 14:00:31;;;;;;;2.47;2.37;;;12.00;1.00;;;;;;6122016;23;20430;-78
2022/11/24 14:03:03;;;;;;;1.00;0.40;;;12.10;1.00;;;;;;6116808;23;20495;-80
2022/11/24 14:05:37;;;;;;;0.60;0.10;;;12.10;1.00;;;;;;6113302;23;20962;-80
2022/11/24 14:08:07;;;;;;;0.60;0.20;;;12.20;1.00;;;;;;6113751;23;20443;-79
2022/11/24 14:10:37;;;;;;;0.60;0.10;;;12.30;1.00;;;;;;6114478;23;20478;-79
2022/11/24 14:13:32;;;;;;;0.60;0.20;;;12.20;1.00;;;;;;6114206;23;20426;-79
2022/11/24 14:16:04;;;;;;;0.60;0.10;;;12.30;1.00;;;;;;6088042;23;20450;-79
2022/11/24 14:18:34;;;;;;;0.60;0.10;;;12.30;1.00;;;;;;6115444;23;20439;-77
2022/11/24 14:21:21;;;;;;;0.60;0.10;;;12.40;1.00;;;;;;6115932;23;20419;-80
2022/11/24 14:23:51;;;;;;;0.93;0.50;;;12.40;1.00;;;;;;6113983;23;20382;-80
2022/11/24 14:26:21;;;;;;;0.60;0.10;;;12.50;1.00;;;;;;6115257;23;20777;-80
2022/11/24 14:28:49;;;;;;;0.60;0.10;;;12.40;1.00;;;;;;6114348;23;20417;-80
2022/11/24 14:31:23;;;;;;;4.73;0.50;;;12.40;1.00;;;;;;6114713;23;20387;-79
2022/11/24 14:34:06;;;;;;;1.77;0.70;;;12.40;1.00;;;;;;6118323;23;20383;-81
2022/11/24 14:36:34;;;;;;;0.60;0.30;;;12.30;1.00;;;;;;6118896;23;20445;-80
2022/11/24 14:39:02;;;;;;;0.60;0.10;;;12.30;1.00;;;;;;6124327;23;20399;-79
2022/11/24 14:41:32;;;;;;;0.80;0.53;;;12.30;1.00;;;;;;6124015;23;20403;-80
2022/11/24 14:44:12;;;;;;;0.60;0.10;;;12.40;1.00;;;;;;6123519;23;20391;-80
2022/11/24 14:46:42;;;;;;;0.60;0.20;;;12.30;1.00;;;;;;6115863;23;20415;-78
2022/11/24 14:49:16;;;;;;;0.60;0.10;;;12.30;1.00;;;;;;6111992;23;20466;-77
2022/11/24 14:51:46;;;;;;;0.60;0.10;;;12.20;1.00;;;;;;6113530;23;20409;-79
2022/11/24 14:54:20;;;;;;;0.60;0.30;;;12.10;1.00;;;;;;6115592;23;20387;-80
2022/11/24 14:57:04;;;;;;;0.60;0.10;;;12.10;1.00;;;;;;6112098;23;20443;-78
2022/11/24 14:59:34;;;;;;;0.60;0.40;;;12.10;1.00;;;;;;6110665;23;20392;-80
2022/11/24 15:02:38;;;;;;;0.60;0.10;;;12.00;1.00;;;;;;6115580;23;20411;-80
2022/11/24 15:05:06;;;;;;;0.60;0.10;;;12.00;1.00;;;;;;6116157;23;20464;-79
2022/11/24 15:07:37;;;;;;;0.50;0.10;;;12.00;1.00;;;;;;6115692;23;20454;-78
2022/11/24 15:10:19;;;;;;;0.60;0.20;;;11.90;1.00;;;;;;6115620;23;20414;-77
2022/11/24 15:12:54;;;;;;;0.60;0.10;;;11.80;1.00;;;;;;6115373;23;20466;-80
2022/11/24 15:15:28;;;;;;;0.60;0.10;;;11.70;1.00;;;;;;6110951;23;20517;-77
2022/11/24 15:17:59;;;;;;;0.60;0.10;;;11.80;1.00;;;;;;6112816;23;20837;-79
2022/11/24 15:20:29;;;;;;;0.63;0.17;;;11.70;1.00;;;;;;6114236;23;20517;-80
2022/11/24 15:23:20;;;;;;;0.60;0.10;;;11.60;1.00;;;;;;6109496;23;20482;-79
2022/11/24 15:25:48;;;;;;;1.03;0.93;;;11.60;1.00;;;;;;6112641;23;20438;-80
2022/11/24 15:28:16;;;;;;;0.60;0.20;;;11.50;1.00;;;;;;6112696;23;20399;-80
2022/11/24 15:30:46;;;;;;;5.73;1.07;;;11.50;1.00;;;;;;6112969;23;20416;-79
2022/11/24 15:33:19;;;;;;;0.50;0.10;;;11.50;1.00;;;;;;6113928;23;20398;-80
2022/11/24 15:35:48;;;;;;;0.70;0.20;;;11.40;1.00;;;;;;6112846;23;20422;-78
2022/11/24 15:38:17;;;;;;;0.50;0.10;;;11.40;1.00;;;;;;6112281;23;20538;-80
2022/11/24 15:40:46;;;;;;;0.60;0.20;;;11.30;1.00;;;;;;6113342;23;20473;-79
2022/11/24 15:43:22;;;;;;;0.50;0.10;;;11.30;1.00;;;;;;6111049;23;20417;-78
2022/11/24 15:45:51;;;;;;;0.60;0.10;;;;;;;;;;6111790;23;20436;-78
2022/11/24 15:48:20;;;;;;;0.60;0.20;;;11.30;1.00;;;;;;6115095;23;20435;-79
2022/11/24 15:50:49;;;;;;;0.60;0.20;;;11.30;1.00;;;;;;6118872;23;20407;-80
2022/11/24 15:53:21;;;;;;;0.60;0.10;;;11.50;1.00;;;;;;6116461;23;20522;-82
2022/11/24 15:55:50;;;;;;;0.60;0.10;;;11.30;1.00;;;;;;6117181;23;20466;-81
2022/11/24 15:58:18;;;;;;;0.60;0.10;;;11.20;1.00;;;;;;6116606;23;20509;-81
2022/11/24 16:00:46;;;;;;;0.93;0.93;;;11.00;1.00;;;;;;6116152;23;20419;-81
2022/11/24 16:03:14;;;;;;;2.10;1.23;;;11.00;1.00;;;;;;6113272;23;20422;-81
2022/11/24 16:06:04;;;;;;;1.60;1.50;;;11.00;1.00;;;;;;6115799;23;20427;-81
2022/11/24 16:08:32;;;;;;;0.53;0.10;;;11.00;1.00;;;;;;6117033;23;20403;-82
2022/11/24 16:11:00;;;;;;;3.80;0.30;;;11.00;1.00;;;;;;6117080;23;20490;-81
2022/11/24 16:13:28;;;;;;;0.60;0.10;;;11.00;1.00;;;;;;6117762;23;20407;-79
2022/11/24 16:15:56;;;;;;;0.57;0.10;;;11.00;1.00;;;;;;6116486;23;20438;-80
2022/11/24 16:18:24;;;;;;;0.53;0.10;;;11.00;1.00;;;;;;6116492;23;20463;-81
2022/11/24 16:20:52;;;;;;;0.50;0.10;;;10.90;1.00;;;;;;6121220;23;20405;-81
2022/11/24 16:23:21;;;;;;;0.50;0.10;;;10.90;1.00;;;;;;6119452;23;20785;-80
2022/11/24 16:25:49;;;;;;;0.60;0.10;;;10.80;1.00;;;;;;6119755;23;20803;-80
2022/11/24 16:28:19;;;;;;;0.60;0.10;;;10.80;1.00;;;;;;6120740;23;20398;-80
2022/11/24 16:30:49;;;;;;;0.50;0.10;;;10.80;1.00;;;;;;6118572;23;20406;-81
2022/11/24 16:33:17;;;;;;;0.50;0.10;;;10.90;1.00;;;;;;6115745;23;20417;-81
2022/11/24 16:35:48;;;;;;;0.50;0.10;;;10.90;1.00;;;;;;6115196;23;20434;-80
2022/11/24 16:38:17;;;;;;;0.80;0.20;;;10.90;1.00;;;;;;6117554;23;20431;-81
2022/11/24 16:40:51;;;;;;;0.60;0.10;;;10.90;1.00;;;;;;6115891;23;20432;-81
2022/11/24 16:43:19;;;;;;;0.50;0.10;;;10.80;1.00;;;;;;6116211;23;20438;-80
2022/11/24 16:45:58;;;;;;;0.50;0.10;;;10.90;1.00;;;;;;6116367;23;20418;-81
2022/11/24 16:48:27;;;;;;;0.50;0.10;;;10.80;1.00;;;;;;6115442;23;20411;-81
2022/11/24 16:50:55;;;;;;;0.60;0.20;;;10.80;1.00;;;;;;6116795;23;20403;-81
2022/11/24 16:53:23;;;;;;;0.50;0.10;;;10.80;1.00;;;;;;6116890;23;20407;-82
2022/11/24 16:55:58;;;;;;;0.50;0.10;;;10.70;1.00;;;;;;6115975;23;20823;-80
2022/11/24 16:58:25;;;;;;;0.50;0.10;;;10.70;1.00;;;;;;6116335;23;20494;-80
2022/11/24 17:00:53;;;;;;;0.50;0.10;;;10.90;1.00;;;;;;6114892;23;20438;-80
2022/11/24 17:03:21;;;;;;;0.50;0.10;;;10.60;1.00;;;;;;6114077;23;20472;-81
2022/11/24 17:05:56;;;;;;;0.50;0.10;;;10.60;1.00;;;;;;6113685;23;20433;-81
2022/11/24 17:08:24;;;;;;;0.50;0.30;;;10.60;1.00;;;;;;6109909;23;21112;-77
2022/11/24 17:10:53;;;;;;;0.50;0.10;;;;;;;;;;6109129;23;20398;-79
2022/11/24 17:13:23;;;;;;;1.07;0.57;;;10.50;1.00;;;;;;6105407;23;20422;-81
2022/11/24 17:15:51;;;;;;;0.50;0.10;;;;;;;;;;6113633;23;20461;-76
2022/11/24 17:18:21;;;;;;;0.60;0.40;;;10.40;1.00;;;;;;6128248;23;20484;-75
2022/11/24 17:20:52;;;;;;;2.40;1.07;;;10.40;1.00;;;;;;6124811;23;20413;-76
2022/11/24 17:23:19;;;;;;;0.50;0.10;;;10.20;1.00;;;;;;6128273;23;20410;-75
2022/11/24 17:25:47;;;;;;;0.50;0.10;;;10.30;1.00;;;;;;6126095;23;20430;-74
2022/11/24 17:28:15;;;;;;;0.50;0.10;;;10.30;1.00;;;;;;6124139;23;20406;-73
2022/11/24 17:30:46;;;;;;;0.50;0.10;;;10.30;1.00;;;;;;6123986;23;20397;-77
2022/11/24 17:33:13;;;;;;;0.50;0.10;;;10.30;1.00;;;;;;6126277;23;20410;-74
2022/11/24 17:35:41;;;;;;;0.50;0.10;;;10.20;1.00;;;;;;6128053;23;20524;-75
2022/11/24 17:38:09;;;;;;;0.70;0.57;;;10.20;1.00;;;;;;6129362;23;20446;-74
2022/11/24 17:40:37;;;;;;;0.50;0.10;;;10.20;1.00;;;;;;6122746;23;20417;-74
2022/11/24 17:43:05;;;;;;;0.50;0.10;;;10.10;1.00;;;;;;6125679;23;20460;-73